sensor_id;sensor_type;location;lat;lon;timestamp;pressure;altitude;pressure_sealevel;temperature;humidity
39309;BME280;26019;47.510;19.122;2023-10-09T00:04:27;101265.16;;;8.74;67.96
39309;BME280;26019;47.510;19.122;2023-10-09T00:14:30;101248.97;;;8.83;66.05
39309;BME280;26019;47.510;19.122;2023-10-09T00:24:36;101257.72;;;8.93;65.87
39309;BME280;26019;47.510;19.122;2023-10-09T00:34:42;101248.59;;;9.14;64.36
39309;BME280;26019;47.510;19.122;2023-10-09T00:44:44;101236.56;;;9.16;62.90
39309;BME280;26019;47.510;19.122;2023-10-09T00:54:51;101240.25;;;9.33;63.62
39309;BME280;26019;47.510;19.122;2023-10-09T01:04:53;101241.97;;;9.33;59.97
39309;BME280;26019;47.510;19.122;2023-10-09T01:26:25;101240.53;;;9.52;56.37
39309;BME280;26019;47.510;19.122;2023-10-09T01:36:27;101240.69;;;9.67;57.48
39309;BME280;26019;47.510;19.122;2023-10-09T01:46:36;101234.47;;;9.50;58.76
39309;BME280;26019;47.510;19.122;2023-10-09T01:56:38;101250.63;;;9.36;60.18
39309;BME280;26019;47.510;19.122;2023-10-09T02:06:45;101260.09;;;9.37;59.75
39309;BME280;26019;47.510;19.122;2023-10-09T02:16:48;101253.22;;;9.38;56.16
39309;BME280;26019;47.510;19.122;2023-10-09T02:27:11;101247.03;;;9.25;56.30
39309;BME280;26019;47.510;19.122;2023-10-09T02:37:14;101224.56;;;9.18;57.11
39309;BME280;26019;47.510;19.122;2023-10-09T02:47:28;101219.28;;;9.08;61.90
39309;BME280;26019;47.510;19.122;2023-10-09T02:57:39;101184.72;;;8.94;67.48
39309;BME280;26019;47.510;19.122;2023-10-09T03:07:43;101189.81;;;8.91;72.08
39309;BME280;26019;47.510;19.122;2023-10-09T03:17:46;101207.91;;;8.95;72.29
39309;BME280;26019;47.510;19.122;2023-10-09T03:27:49;101193.50;;;9.08;69.49
39309;BME280;26019;47.510;19.122;2023-10-09T03:37:56;101197.19;;;9.29;67.83
39309;BME280;26019;47.510;19.122;2023-10-09T03:47:58;101184.38;;;9.34;65.46
39309;BME280;26019;47.510;19.122;2023-10-09T03:58:10;101191.38;;;9.41;65.91
39309;BME280;26019;47.510;19.122;2023-10-09T04:08:20;101173.34;;;9.46;68.14
39309;BME280;26019;47.510;19.122;2023-10-09T04:18:29;101173.38;;;9.49;66.73
39309;BME280;26019;47.510;19.122;2023-10-09T04:28:35;101175.19;;;9.56;62.67
39309;BME280;26019;47.510;19.122;2023-10-09T04:38:38;101168.28;;;9.52;58.65
39309;BME280;26019;47.510;19.122;2023-10-09T04:48:54;101147.69;;;9.58;56.99
39309;BME280;26019;47.510;19.122;2023-10-09T04:58:56;101146.00;;;9.62;57.88
39309;BME280;26019;47.510;19.122;2023-10-09T05:09:05;101132.25;;;9.64;57.03
39309;BME280;26019;47.510;19.122;2023-10-09T05:19:10;101131.53;;;9.73;56.68
39309;BME280;26019;47.510;19.122;2023-10-09T05:29:32;101113.56;;;9.84;55.78
39309;BME280;26019;47.510;19.122;2023-10-09T05:39:34;101143.63;;;9.80;55.36
39309;BME280;26019;47.510;19.122;2023-10-09T05:49:43;101161.81;;;9.91;54.33
39309;BME280;26019;47.510;19.122;2023-10-09T05:59:48;101093.25;;;10.24;52.04
39309;BME280;26019;47.510;19.122;2023-10-09T06:10:08;101120.78;;;10.22;50.64
39309;BME280;26019;47.510;19.122;2023-10-09T06:20:24;101086.38;;;10.26;49.45
39309;BME280;26019;47.510;19.122;2023-10-09T06:30:52;101086.56;;;10.53;48.23
39309;BME280;26019;47.510;19.122;2023-10-09T06:40:54;101097.06;;;10.78;46.45
39309;BME280;26019;47.510;19.122;2023-10-09T06:51:10;101097.09;;;10.82;45.48
39309;BME280;26019;47.510;19.122;2023-10-09T07:01:30;101080.78;;;10.96;44.25
39309;BME280;26019;47.510;19.122;2023-10-09T07:11:48;101073.03;;;11.02;43.87
39309;BME280;26019;47.510;19.122;2023-10-09T07:21:51;101058.53;;;11.40;43.75
39309;BME280;26019;47.510;19.122;2023-10-09T07:31:55;100994.66;;;11.34;43.97
39309;BME280;26019;47.510;19.122;2023-10-09T07:42:16;100975.69;;;11.86;42.05
39309;BME280;26019;47.510;19.122;2023-10-09T07:52:28;100967.75;;;12.68;38.85
39309;BME280;26019;47.510;19.122;2023-10-09T08:02:31;100974.78;;;12.40;39.50
39309;BME280;26019;47.510;19.122;2023-10-09T08:12:42;100973.13;;;11.91;39.92
39309;BME280;26019;47.510;19.122;2023-10-09T08:22:56;100948.09;;;11.60;40.42
39309;BME280;26019;47.510;19.122;2023-10-09T08:32:58;100935.16;;;11.45;40.93
39309;BME280;26019;47.510;19.122;2023-10-09T08:53:12;100926.44;;;12.33;40.06
39309;BME280;26019;47.510;19.122;2023-10-09T09:03:17;100897.81;;;12.51;40.21
39309;BME280;26019;47.510;19.122;2023-10-09T09:13:19;100884.88;;;12.56;39.62
39309;BME280;26019;47.510;19.122;2023-10-09T09:23:22;100878.22;;;13.38;38.92
39309;BME280;26019;47.510;19.122;2023-10-09T09:33:27;100867.06;;;15.89;36.18
39309;BME280;26019;47.510;19.122;2023-10-09T09:43:58;100854.78;;;21.37;27.94
39309;BME280;26019;47.510;19.122;2023-10-09T09:54:06;100848.41;;;22.03;24.79
39309;BME280;26019;47.510;19.122;2023-10-09T10:04:14;100850.13;;;18.53;28.18
39309;BME280;26019;47.510;19.122;2023-10-09T10:14:22;100774.13;;;21.18;26.23
39309;BME280;26019;47.510;19.122;2023-10-09T10:24:40;100728.91;;;17.34;30.69
39309;BME280;26019;47.510;19.122;2023-10-09T10:34:56;100707.53;;;16.86;30.40
39309;BME280;26019;47.510;19.122;2023-10-09T10:44:59;100689.13;;;20.78;25.49
39309;BME280;26019;47.510;19.122;2023-10-09T10:55:14;100632.00;;;20.83;25.49
39309;BME280;26019;47.510;19.122;2023-10-09T11:05:25;100664.78;;;23.95;23.04
39309;BME280;26019;47.510;19.122;2023-10-09T11:15:36;100660.88;;;19.51;27.84
39309;BME280;26019;47.510;19.122;2023-10-09T11:25:59;100713.94;;;19.58;27.87
39309;BME280;26019;47.510;19.122;2023-10-09T11:36:21;100633.78;;;25.61;20.88
39309;BME280;26019;47.510;19.122;2023-10-09T11:47:00;100688.59;;;20.26;25.94
39309;BME280;26019;47.510;19.122;2023-10-09T11:57:23;100645.16;;;21.80;24.98
39309;BME280;26019;47.510;19.122;2023-10-09T12:07:33;100609.38;;;18.53;29.59
39309;BME280;26019;47.510;19.122;2023-10-09T12:17:34;100604.06;;;18.02;33.76
39309;BME280;26019;47.510;19.122;2023-10-09T12:27:38;100590.31;;;17.69;34.69
39309;BME280;26019;47.510;19.122;2023-10-09T12:37:45;100567.31;;;19.31;34.87
39309;BME280;26019;47.510;19.122;2023-10-09T12:47:47;100570.50;;;16.70;36.46
39309;BME280;26019;47.510;19.122;2023-10-09T12:57:49;100583.75;;;15.53;40.73
39309;BME280;26019;47.510;19.122;2023-10-09T13:07:53;100578.16;;;15.31;43.75
39309;BME280;26019;47.510;19.122;2023-10-09T13:17:57;100573.50;;;15.06;45.67
39309;BME280;26019;47.510;19.122;2023-10-09T13:27:59;100553.91;;;14.88;49.36
39309;BME280;26019;47.510;19.122;2023-10-09T13:38:07;100544.66;;;14.73;61.56
39309;BME280;26019;47.510;19.122;2023-10-09T13:48:11;100549.41;;;14.95;67.95
39309;BME280;26019;47.510;19.122;2023-10-09T13:58:14;100550.88;;;14.63;80.95
39309;BME280;26019;47.510;19.122;2023-10-09T14:08:24;100508.97;;;13.84;100.00
39309;BME280;26019;47.510;19.122;2023-10-09T14:18:34;100512.50;;;13.79;100.00
39309;BME280;26019;47.510;19.122;2023-10-09T14:28:36;100485.06;;;13.62;100.00
39309;BME280;26019;47.510;19.122;2023-10-09T14:38:39;100513.91;;;13.45;100.00
39309;BME280;26019;47.510;19.122;2023-10-09T14:48:43;100521.81;;;13.34;100.00
39309;BME280;26019;47.510;19.122;2023-10-09T14:58:49;100507.06;;;13.36;100.00
39309;BME280;26019;47.510;19.122;2023-10-09T15:08:51;100504.03;;;13.05;100.00
39309;BME280;26019;47.510;19.122;2023-10-09T15:18:54;100487.91;;;12.79;100.00
39309;BME280;26019;47.510;19.122;2023-10-09T15:29:01;100482.09;;;12.60;100.00
39309;BME280;26019;47.510;19.122;2023-10-09T15:39:08;100482.94;;;12.64;100.00
39309;BME280;26019;47.510;19.122;2023-10-09T15:49:15;100468.31;;;12.58;100.00
39309;BME280;26019;47.510;19.122;2023-10-09T15:59:17;100472.97;;;12.27;100.00
39309;BME280;26019;47.510;19.122;2023-10-09T16:09:19;100460.88;;;12.29;100.00
39309;BME280;26019;47.510;19.122;2023-10-09T16:19:23;100460.19;;;12.09;100.00
39309;BME280;26019;47.510;19.122;2023-10-09T16:29:25;100472.47;;;11.84;100.00
39309;BME280;26019;47.510;19.122;2023-10-09T16:39:29;100471.50;;;12.02;100.00
39309;BME280;26019;47.510;19.122;2023-10-09T16:49:41;100500.84;;;12.01;100.00
39309;BME280;26019;47.510;19.122;2023-10-09T16:59:43;100488.72;;;12.08;100.00
39309;BME280;26019;47.510;19.122;2023-10-09T17:09:47;100492.22;;;12.01;100.00
39309;BME280;26019;47.510;19.122;2023-10-09T17:19:50;100489.53;;;12.10;100.00
39309;BME280;26019;47.510;19.122;2023-10-09T17:29:52;100478.31;;;12.13;100.00
39309;BME280;26019;47.510;19.122;2023-10-09T17:39:59;100480.72;;;12.28;100.00
39309;BME280;26019;47.510;19.122;2023-10-09T17:50:03;100468.59;;;12.30;100.00
39309;BME280;26019;47.510;19.122;2023-10-09T18:00:08;100451.31;;;12.32;100.00
39309;BME280;26019;47.510;19.122;2023-10-09T18:10:37;100453.94;;;12.31;100.00
39309;BME280;26019;47.510;19.122;2023-10-09T18:20:44;100456.66;;;12.18;100.00
39309;BME280;26019;47.510;19.122;2023-10-09T18:31:13;100471.19;;;12.30;100.00
39309;BME280;26019;47.510;19.122;2023-10-09T18:41:21;100472.81;;;12.44;100.00
39309;BME280;26019;47.510;19.122;2023-10-09T18:51:30;100470.13;;;12.50;100.00
39309;BME280;26019;47.510;19.122;2023-10-09T19:01:40;100494.75;;;12.08;100.00
39309;BME280;26019;47.510;19.122;2023-10-09T19:11:42;100494.06;;;11.85;100.00
39309;BME280;26019;47.510;19.122;2023-10-09T19:21:46;100502.06;;;11.54;100.00
39309;BME280;26019;47.510;19.122;2023-10-09T19:31:51;100492.59;;;11.53;100.00
39309;BME280;26019;47.510;19.122;2023-10-09T19:41:54;100500.38;;;11.46;100.00
39309;BME280;26019;47.510;19.122;2023-10-09T19:52:00;100521.16;;;11.34;100.00
39309;BME280;26019;47.510;19.122;2023-10-09T20:02:03;100528.19;;;11.10;100.00
39309;BME280;26019;47.510;19.122;2023-10-09T20:12:05;100551.50;;;11.02;100.00
39309;BME280;26019;47.510;19.122;2023-10-09T20:22:08;100542.13;;;10.72;100.00
39309;BME280;26019;47.510;19.122;2023-10-09T20:32:13;100555.97;;;10.18;100.00
39309;BME280;26019;47.510;19.122;2023-10-09T20:42:18;100531.88;;;9.88;100.00
39309;BME280;26019;47.510;19.122;2023-10-09T20:52:25;100560.28;;;10.02;100.00
39309;BME280;26019;47.510;19.122;2023-10-09T21:02:27;100568.78;;;9.39;100.00
39309;BME280;26019;47.510;19.122;2023-10-09T21:12:29;100577.41;;;9.47;100.00
39309;BME280;26019;47.510;19.122;2023-10-09T21:22:31;100580.69;;;9.03;100.00
39309;BME280;26019;47.510;19.122;2023-10-09T21:32:33;100582.44;;;9.11;100.00
39309;BME280;26019;47.510;19.122;2023-10-09T21:42:44;100587.63;;;9.22;100.00
39309;BME280;26019;47.510;19.122;2023-10-09T21:52:49;100590.97;;;9.01;100.00
39309;BME280;26019;47.510;19.122;2023-10-09T22:02:53;100591.03;;;9.09;100.00
39309;BME280;26019;47.510;19.122;2023-10-09T22:12:58;100583.28;;;9.07;100.00
39309;BME280;26019;47.510;19.122;2023-10-09T22:23:04;100580.78;;;9.31;100.00
39309;BME280;26019;47.510;19.122;2023-10-09T22:33:12;100580.00;;;9.52;100.00
39309;BME280;26019;47.510;19.122;2023-10-09T22:43:23;100586.84;;;9.44;100.00
39309;BME280;26019;47.510;19.122;2023-10-09T22:53:41;100561.91;;;9.44;100.00
39309;BME280;26019;47.510;19.122;2023-10-09T23:03:54;100560.22;;;9.43;100.00
39309;BME280;26019;47.510;19.122;2023-10-09T23:14:11;100561.03;;;9.33;100.00
39309;BME280;26019;47.510;19.122;2023-10-09T23:24:44;100552.34;;;9.10;100.00
39309;BME280;26019;47.510;19.122;2023-10-09T23:35:10;100571.25;;;9.09;100.00
39309;BME280;26019;47.510;19.122;2023-10-09T23:45:20;100563.59;;;9.34;100.00
39309;BME280;26019;47.510;19.122;2023-10-09T23:55:23;100573.94;;;9.44;100.00
